ホノルル の空港の天気 - METARとTAF

ホノルル国際空港 ( PHNL / HNL ) - アメリカ ハワイ州ホノルル
飛行場実況気象(Metar)
観測時間04/26 18:53 HST (04/27 04:53 UTC)
風向・風速北 3m/s
視程10km以上
天気現象
少しの雲 雲底高度 490m
全天の4割程度の雲 雲底高度 790m
全天の4割程度の雲 雲底高度 1520m
全天の4割程度の雲 雲底高度 6710m
気温25℃
湿度69%
気圧1014.7hPa
METARPHNL 270453Z 01005KT 10SM FEW016 SCT026 SCT050 SCT220 25/19 A2997 RMK AO2 SLP147 SHRA DSNT N T02500189
過去の天気等 Google飛行場航空写真 Wunderground天気予報

過去48時間のMETAR

飛行場予報(TAF)
発表時間: 4/26 16:35 HST (4/27 02:35 UTC)
予報対象時間: 26日17時 HST ~ 27日20時 HST
風向・風速東北東 6m/s
視程10km以上
天気現象周辺でしゅう雨
全天の4割程度の雲 雲底高度 760m
全天の8割程度の雲 雲底高度 1,370m
26日20時 HST から
風向・風速東北東 3m/s
視程10km以上
天気現象周辺でしゅう雨
全天の4割程度の雲 雲底高度 760m
全天の8割程度の雲 雲底高度 1,370m
27日11時 HST から
風向・風速南西 4m/s
視程10km以上
全天の4割程度の雲 雲底高度 760m
全天の8割程度の雲 雲底高度 1,370m
PHNL 270235Z 2703/2806 07011KT P6SM VCSH SCT025 BKN045
FM270600 07006KT P6SM VCSH SCT025 BKN045
FM272100 22008KT P6SM SCT025 BKN045